Time;durP1;ratioP1;P1;durP2;ratioP2;P2;SDS_P1;SDS_P2;PMS_P1;PMS_P2;Temp;Humidity;BMP_temperature;BMP_pressure;BME280_temperature;BME280_humidity;BME280_pressure;Samples;Min_cycle;Max_cycle;Signal;HPM_P1;HPM_P2
2023/03/07 00:01:44;;;;;;;1.15;0.77;;;8.50;56.00;;;;;;5041916;28;20024;-81
2023/03/07 00:04:09;;;;;;;1.27;1.08;;;8.50;56.00;;;;;;5044508;28;20029;-80
2023/03/07 00:06:35;;;;;;;1.35;1.10;;;8.50;56.10;;;;;;5054879;28;20028;-80
2023/03/07 00:09:02;;;;;;;0.70;0.70;;;8.50;56.00;;;;;;5025714;28;20063;-79
2023/03/07 00:11:28;;;;;;;2.17;1.10;;;8.50;56.00;;;;;;5026922;28;20040;-81
2023/03/07 00:13:55;;;;;;;2.88;1.08;;;8.50;55.90;;;;;;5034678;28;20055;-80
2023/03/07 00:16:22;;;;;;;1.63;0.88;;;8.50;55.90;;;;;;5053120;28;20207;-80
2023/03/07 00:18:48;;;;;;;2.38;1.10;;;8.50;55.90;;;;;;5054262;28;20037;-80
2023/03/07 00:21:18;;;;;;;0.77;0.77;;;8.50;55.80;;;;;;5025266;28;20039;-81
2023/03/07 00:23:45;;;;;;;1.17;0.90;;;8.50;55.70;;;;;;5040715;28;20037;-81
2023/03/07 00:26:12;;;;;;;1.05;1.00;;;8.50;55.70;;;;;;5053726;28;20044;-81
2023/03/07 00:28:40;;;;;;;1.15;1.00;;;8.40;55.70;;;;;;5025483;28;20509;-83
2023/03/07 00:31:08;;;;;;;1.77;1.30;;;8.40;55.50;;;;;;5027949;28;20067;-79
2023/03/07 00:33:34;;;;;;;1.45;0.98;;;8.50;55.60;;;;;;5056667;28;20101;-80
2023/03/07 00:36:10;;;;;;;2.50;1.00;;;8.40;55.50;;;;;;5053187;28;20089;-78
2023/03/07 00:38:37;;;;;;;1.25;1.10;;;8.40;55.50;;;;;;5038754;28;20056;-81
2023/03/07 00:41:08;;;;;;;1.65;1.20;;;8.40;55.40;;;;;;5034856;28;20052;-78
2023/03/07 00:43:35;;;;;;;0.90;0.90;;;8.40;55.50;;;;;;5033680;28;20044;-79
2023/03/07 00:46:02;;;;;;;1.20;0.98;;;8.40;55.40;;;;;;5035061;28;20038;-79
2023/03/07 00:48:28;;;;;;;1.70;1.20;;;8.40;55.50;;;;;;5034248;28;20045;-79
2023/03/07 00:50:55;;;;;;;1.20;0.95;;;8.40;55.40;;;;;;5021697;28;20453;-79
2023/03/07 00:53:24;;;;;;;1.20;1.00;;;8.40;55.40;;;;;;5022264;28;20025;-81
2023/03/07 00:55:58;;;;;;;2.40;1.30;;;8.40;55.40;;;;;;5038377;28;20079;-81
2023/03/07 00:58:27;;;;;;;2.15;0.90;;;8.30;55.40;;;;;;5033124;28;20033;-81
2023/03/07 01:00:53;;;;;;;1.23;0.80;;;8.40;55.30;;;;;;5039577;28;20029;-80
2023/03/07 01:03:19;;;;;;;1.67;0.90;;;8.40;55.30;;;;;;5035014;28;20475;-81
2023/03/07 01:05:46;;;;;;;2.58;0.93;;;8.30;55.20;;;;;;5038258;28;20469;-80
2023/03/07 01:08:13;;;;;;;1.63;1.00;;;8.30;55.20;;;;;;5039206;28;20112;-80
2023/03/07 01:10:39;;;;;;;1.90;1.00;;;8.30;55.20;;;;;;5037748;28;20057;-81
2023/03/07 01:13:05;;;;;;;1.73;0.90;;;8.30;55.20;;;;;;5041192;28;21002;-81
2023/03/07 01:15:31;;;;;;;1.30;0.93;;;8.30;55.10;;;;;;5021581;28;20037;-79
2023/03/07 01:17:58;;;;;;;1.23;0.85;;;8.30;55.10;;;;;;5051265;28;20492;-78
2023/03/07 01:20:24;;;;;;;1.45;0.80;;;8.30;55.10;;;;;;5036510;28;20113;-78
2023/03/07 01:22:50;;;;;;;0.90;0.90;;;8.30;55.20;;;;;;5033859;28;20029;-77
2023/03/07 01:25:16;;;;;;;1.60;1.05;;;8.30;55.20;;;;;;5033465;28;20026;-79
2023/03/07 01:27:43;;;;;;;0.93;0.80;;;8.30;55.30;;;;;;5042086;28;20751;-79
2023/03/07 01:30:09;;;;;;;1.55;1.00;;;8.30;55.30;;;;;;5033429;28;20037;-80
2023/03/07 01:32:37;;;;;;;0.88;0.88;;;8.30;55.30;;;;;;5032583;28;20705;-78
2023/03/07 01:35:04;;;;;;;1.33;0.90;;;8.30;55.40;;;;;;5040518;28;20041;-80
2023/03/07 01:37:30;;;;;;;2.28;0.98;;;8.30;55.30;;;;;;5028005;28;20033;-82
2023/03/07 01:39:56;;;;;;;2.55;1.13;;;8.20;55.30;;;;;;5020779;28;20094;-80
2023/03/07 01:42:22;;;;;;;1.52;1.00;;;8.20;55.40;;;;;;5037769;28;20238;-83
2023/03/07 01:45:13;;;;;;;1.25;0.93;;;8.20;55.30;;;;;;5039008;28;20043;-80
2023/03/07 01:47:45;;;;;;;1.73;1.10;;;8.20;55.40;;;;;;4988699;28;20049;-80
2023/03/07 01:50:15;;;;;;;2.63;1.10;;;8.20;55.30;;;;;;4990813;28;20041;-79
2023/03/07 01:52:46;;;;;;;1.58;1.08;;;8.20;55.30;;;;;;4989398;28;20038;-80
2023/03/07 01:55:20;;;;;;;1.67;1.00;;;8.20;55.30;;;;;;5001159;28;20533;-79
2023/03/07 01:57:50;;;;;;;1.73;1.20;;;8.20;55.30;;;;;;5001410;28;20042;-80
2023/03/07 02:00:28;;;;;;;1.33;0.95;;;8.20;55.30;;;;;;4991709;28;20030;-80
2023/03/07 02:03:09;;;;;;;1.50;1.13;;;8.20;55.30;;;;;;5001090;28;21819;-80
2023/03/07 02:05:48;;;;;;;1.10;0.90;;;8.20;55.40;;;;;;4987839;28;20924;-78
2023/03/07 02:08:17;;;;;;;1.23;1.00;;;8.10;55.40;;;;;;4985696;28;20030;-80
2023/03/07 02:10:43;;;;;;;1.67;1.00;;;8.10;55.40;;;;;;4988785;28;20037;-81
2023/03/07 02:13:10;;;;;;;1.15;0.90;;;8.10;55.40;;;;;;5001034;28;20043;-79
2023/03/07 02:15:36;;;;;;;2.00;1.02;;;8.10;55.50;;;;;;4985294;28;20125;-80
2023/03/07 02:18:04;;;;;;;1.95;1.23;;;8.10;55.40;;;;;;4988946;28;20034;-82
2023/03/07 02:20:59;;;;;;;1.98;1.10;;;8.10;55.50;;;;;;4986057;28;21492;-81
2023/03/07 02:23:43;;;;;;;1.85;1.30;;;8.10;55.50;;;;;;4900196;29;20526;-82
2023/03/07 02:26:15;;;;;;;1.58;0.90;;;8.10;55.50;;;;;;4982464;28;20118;-81
2023/03/07 02:28:43;;;;;;;1.80;1.13;;;8.10;55.50;;;;;;4947904;28;20136;-80
2023/03/07 02:31:10;;;;;;;2.35;1.08;;;8.10;55.60;;;;;;4981306;28;20532;-81
2023/03/07 02:33:37;;;;;;;2.42;0.85;;;8.10;55.60;;;;;;4952337;28;20057;-78
2023/03/07 02:36:11;;;;;;;2.08;1.15;;;8.10;55.80;;;;;;4982820;28;20159;-80
2023/03/07 02:38:47;;;;;;;2.22;0.90;;;8.10;55.80;;;;;;4953006;28;20055;-82
2023/03/07 02:41:18;;;;;;;1.33;1.10;;;8.00;55.80;;;;;;4966467;28;20520;-81
2023/03/07 02:43:45;;;;;;;1.10;1.00;;;8.00;55.80;;;;;;4981027;28;20134;-83
2023/03/07 02:46:11;;;;;;;1.08;0.90;;;8.00;55.80;;;;;;4951479;28;20179;-82
2023/03/07 02:48:38;;;;;;;2.50;1.08;;;8.00;55.90;;;;;;4965201;28;20050;-79
2023/03/07 02:51:04;;;;;;;1.98;1.17;;;8.00;55.90;;;;;;4965230;28;20045;-82
2023/03/07 02:53:30;;;;;;;2.25;1.45;;;8.00;55.90;;;;;;4965254;28;20042;-81
2023/03/07 02:55:56;;;;;;;2.67;1.10;;;8.00;55.80;;;;;;4964804;28;20045;-80
2023/03/07 02:58:23;;;;;;;1.48;1.05;;;8.00;55.90;;;;;;4952040;28;20660;-81
2023/03/07 03:00:49;;;;;;;3.58;1.60;;;8.00;55.90;;;;;;5034614;28;20519;-80
2023/03/07 03:03:15;;;;;;;2.38;1.30;;;8.00;55.90;;;;;;5040876;28;20040;-79
2023/03/07 03:05:41;;;;;;;1.67;1.25;;;8.00;55.90;;;;;;5040129;28;20041;-79
2023/03/07 03:08:07;;;;;;;0.98;0.82;;;8.00;55.90;;;;;;5038483;28;20032;-80
2023/03/07 03:10:33;;;;;;;2.53;1.13;;;8.00;55.90;;;;;;5022424;28;20125;-81
2023/03/07 03:13:00;;;;;;;3.10;1.05;;;8.00;55.80;;;;;;5039605;28;20078;-80
2023/03/07 03:15:26;;;;;;;1.20;1.10;;;8.00;55.90;;;;;;5025477;28;20036;-81
2023/03/07 03:17:53;;;;;;;1.67;0.98;;;7.90;55.80;;;;;;5040984;28;20033;-82
2023/03/07 03:20:19;;;;;;;1.50;1.02;;;7.90;55.80;;;;;;5038457;28;20119;-80
2023/03/07 03:22:45;;;;;;;2.25;1.25;;;8.00;55.80;;;;;;5020100;28;20467;-82
2023/03/07 03:25:13;;;;;;;2.45;1.02;;;7.90;55.70;;;;;;5042587;28;20458;-81
2023/03/07 03:27:42;;;;;;;2.50;1.00;;;7.90;55.80;;;;;;5034940;28;20068;-81
2023/03/07 03:30:11;;;;;;;1.75;1.00;;;7.90;55.80;;;;;;5040683;28;20033;-81
2023/03/07 03:32:38;;;;;;;1.83;1.25;;;7.90;55.70;;;;;;5024165;28;20497;-83
2023/03/07 03:35:06;;;;;;;2.47;1.10;;;7.90;55.80;;;;;;5040468;28;20033;-81
2023/03/07 03:37:33;;;;;;;1.42;0.90;;;7.90;55.90;;;;;;5041248;28;20033;-82
2023/03/07 03:39:59;;;;;;;1.73;1.20;;;7.90;55.90;;;;;;5040366;28;20041;-81
2023/03/07 03:42:25;;;;;;;1.63;1.20;;;7.90;56.00;;;;;;5032184;28;20033;-81
2023/03/07 03:44:51;;;;;;;1.58;1.05;;;7.90;56.10;;;;;;5036593;28;20163;-81
2023/03/07 03:47:18;;;;;;;1.67;1.40;;;7.90;56.00;;;;;;5036486;28;20033;-80
2023/03/07 03:49:44;;;;;;;1.85;1.30;;;7.90;56.10;;;;;;5049444;28;20420;-81
2023/03/07 03:52:10;;;;;;;1.48;1.20;;;7.90;56.00;;;;;;5039266;28;20033;-82
2023/03/07 03:54:36;;;;;;;2.35;1.27;;;7.90;56.20;;;;;;5023067;28;20044;-83
2023/03/07 03:57:02;;;;;;;1.83;1.23;;;7.90;56.00;;;;;;5032855;28;20046;-85
2023/03/07 03:59:29;;;;;;;4.03;1.20;;;7.80;56.10;;;;;;5037612;28;20033;-85
2023/03/07 04:01:56;;;;;;;2.63;1.30;;;7.90;56.10;;;;;;5005596;28;20539;-84
2023/03/07 04:04:22;;;;;;;1.58;1.40;;;7.90;56.10;;;;;;5033569;28;20167;-86
2023/03/07 04:06:48;;;;;;;1.55;1.10;;;7.90;56.00;;;;;;5022831;28;20499;-87
2023/03/07 04:09:16;;;;;;;1.38;1.27;;;7.90;56.00;;;;;;5021886;28;20040;-81
2023/03/07 04:11:45;;;;;;;2.95;1.52;;;7.90;56.00;;;;;;5035821;28;20049;-82
2023/03/07 04:14:11;;;;;;;2.63;1.42;;;7.90;56.00;;;;;;5034837;28;20086;-83
2023/03/07 04:16:37;;;;;;;1.45;1.02;;;7.90;56.00;;;;;;5039601;28;20519;-81
2023/03/07 04:19:03;;;;;;;1.70;1.55;;;7.80;56.00;;;;;;5038634;28;20131;-80
2023/03/07 04:21:29;;;;;;;2.28;1.50;;;7.90;56.20;;;;;;5018624;28;20088;-75
2023/03/07 04:23:57;;;;;;;5.10;2.17;;;7.80;56.30;;;;;;5026558;28;20042;-76
2023/03/07 04:26:26;;;;;;;6.70;2.60;;;7.90;69.70;;;;;;5039284;28;20044;-74
2023/03/07 04:28:52;;;;;;;8.10;3.58;;;8.00;70.70;;;;;;5032774;28;20033;-75
2023/03/07 04:31:27;;;;;;;7.95;3.60;;;8.20;72.90;;;;;;5024668;28;20036;-75
2023/03/07 04:33:55;;;;;;;7.53;2.90;;;8.30;71.30;;;;;;5010086;28;20025;-76
2023/03/07 04:36:22;;;;;;;5.40;2.45;;;8.50;69.80;;;;;;5037288;28;20040;-79
2023/03/07 04:38:50;;;;;;;4.72;2.45;;;8.50;66.10;;;;;;5034263;28;20064;-77
2023/03/07 04:41:19;;;;;;;4.88;2.53;;;8.50;64.30;;;;;;5018278;28;20395;-75
2023/03/07 04:43:48;;;;;;;3.45;1.83;;;8.50;62.30;;;;;;5041056;28;20040;-75
2023/03/07 04:46:15;;;;;;;3.22;1.70;;;8.60;61.60;;;;;;5048699;28;20041;-77
2023/03/07 04:48:42;;;;;;;3.85;2.00;;;8.50;61.00;;;;;;5008373;28;20033;-76
2023/03/07 04:51:08;;;;;;;4.30;2.13;;;8.50;60.60;;;;;;5026504;28;20041;-75
2023/03/07 04:53:34;;;;;;;3.83;1.98;;;8.60;60.40;;;;;;5024200;28;20564;-76
2023/03/07 04:56:02;;;;;;;3.17;1.70;;;8.50;60.00;;;;;;5035872;28;20037;-76
2023/03/07 04:58:30;;;;;;;2.97;1.92;;;8.50;60.00;;;;;;5039474;28;20029;-76
2023/03/07 05:00:57;;;;;;;3.65;1.80;;;8.50;60.00;;;;;;5042853;28;20086;-76
2023/03/07 05:03:27;;;;;;;2.20;1.67;;;8.60;60.50;;;;;;5036591;28;20033;-76
2023/03/07 05:05:54;;;;;;;7.30;2.28;;;8.50;59.50;;;;;;5035880;28;20471;-76
2023/03/07 05:08:21;;;;;;;2.95;1.52;;;8.50;59.30;;;;;;5023957;28;20512;-76
2023/03/07 05:10:48;;;;;;;2.38;1.58;;;8.50;58.90;;;;;;5044751;28;20131;-75
2023/03/07 05:13:14;;;;;;;3.17;1.58;;;8.50;58.70;;;;;;5025402;28;20037;-75
2023/03/07 05:15:40;;;;;;;3.40;1.77;;;8.50;58.40;;;;;;5054995;28;20586;-75
2023/03/07 05:18:07;;;;;;;2.95;1.75;;;8.50;58.30;;;;;;5039190;28;20503;-75
2023/03/07 05:20:33;;;;;;;3.05;2.00;;;8.50;58.10;;;;;;5022695;28;20037;-75
2023/03/07 05:22:59;;;;;;;1.88;1.65;;;8.50;58.00;;;;;;5028406;28;20560;-75
2023/03/07 05:25:25;;;;;;;2.20;1.83;;;8.50;57.90;;;;;;5041483;28;20516;-75
2023/03/07 05:27:52;;;;;;;2.22;1.70;;;8.50;57.50;;;;;;5039136;28;20497;-75
2023/03/07 05:30:19;;;;;;;3.63;1.85;;;8.40;57.30;;;;;;5045565;28;20029;-75
2023/03/07 05:32:45;;;;;;;3.78;1.80;;;8.50;57.30;;;;;;5012883;28;20622;-74
2023/03/07 05:35:13;;;;;;;2.35;1.88;;;8.50;57.10;;;;;;5046444;28;20569;-73
2023/03/07 05:37:40;;;;;;;2.85;1.50;;;8.50;63.70;;;;;;5045614;28;20033;-73
2023/03/07 05:40:09;;;;;;;4.85;1.55;;;8.60;64.10;;;;;;5042688;28;20404;-73
2023/03/07 05:42:38;;;;;;;2.53;1.58;;;8.80;63.70;;;;;;5040104;28;20471;-73
2023/03/07 05:45:05;;;;;;;2.15;1.15;;;9.00;63.40;;;;;;5045670;28;20033;-73
2023/03/07 05:47:31;;;;;;;3.55;1.67;;;9.20;62.60;;;;;;5044158;28;20041;-73
2023/03/07 05:49:57;;;;;;;2.65;1.50;;;9.40;62.00;;;;;;5044324;28;20067;-73
2023/03/07 05:52:23;;;;;;;3.28;1.60;;;9.60;61.40;;;;;;5042503;28;20069;-73
2023/03/07 05:54:49;;;;;;;2.22;1.50;;;9.70;61.10;;;;;;5038865;28;20044;-73
2023/03/07 05:57:16;;;;;;;1.40;1.30;;;9.90;60.10;;;;;;5041340;28;20033;-73
2023/03/07 05:59:42;;;;;;;4.93;1.83;;;10.10;59.60;;;;;;5027518;28;20037;-73
2023/03/07 06:02:08;;;;;;;3.40;1.42;;;10.20;58.90;;;;;;5024688;28;20373;-73
2023/03/07 06:04:34;;;;;;;4.05;1.55;;;10.30;58.80;;;;;;5043243;28;20091;-73
2023/03/07 06:07:00;;;;;;;3.10;1.50;;;10.50;58.00;;;;;;5036749;28;20052;-73
2023/03/07 06:09:27;;;;;;;2.40;1.67;;;10.60;58.10;;;;;;5043178;28;20037;-73
2023/03/07 06:11:55;;;;;;;2.97;1.65;;;10.70;57.50;;;;;;5042449;28;20032;-73
2023/03/07 06:14:21;;;;;;;2.65;2.00;;;10.80;57.10;;;;;;5040764;28;20507;-73
2023/03/07 06:16:46;;;;;;;2.15;1.60;;;10.90;56.50;;;;;;5041165;28;20055;-73
2023/03/07 06:19:13;;;;;;;2.72;1.67;;;11.00;56.20;;;;;;5043628;28;20099;-73
2023/03/07 06:21:40;;;;;;;3.30;1.75;;;11.10;55.60;;;;;;5044116;28;20520;-73
2023/03/07 06:24:07;;;;;;;4.80;1.55;;;11.30;55.90;;;;;;5039902;28;20041;-73
2023/03/07 06:26:33;;;;;;;2.50;1.80;;;11.30;55.20;;;;;;5040695;28;20582;-74
2023/03/07 06:29:00;;;;;;;1.98;1.45;;;11.40;55.50;;;;;;5044635;28;20052;-74
2023/03/07 06:31:27;;;;;;;2.33;1.65;;;11.40;55.70;;;;;;5037471;28;20029;-74
2023/03/07 06:33:54;;;;;;;2.40;1.80;;;11.30;54.90;;;;;;5029297;28;20407;-74
2023/03/07 06:36:21;;;;;;;3.72;2.10;;;11.20;53.60;;;;;;5043397;28;20231;-74
2023/03/07 06:38:53;;;;;;;3.28;2.22;;;11.20;53.30;;;;;;5039936;28;20053;-75
2023/03/07 06:41:19;;;;;;;3.47;1.98;;;11.10;52.90;;;;;;5044383;28;20049;-75
2023/03/07 06:43:50;;;;;;;3.15;2.00;;;11.10;52.90;;;;;;5039656;28;20041;-75
2023/03/07 06:46:17;;;;;;;2.88;1.95;;;11.00;53.00;;;;;;5038058;28;20516;-75
2023/03/07 06:48:43;;;;;;;1.95;1.70;;;11.00;52.90;;;;;;5038262;28;20520;-75
2023/03/07 06:51:14;;;;;;;3.20;2.25;;;10.90;52.90;;;;;;5039229;28;20038;-75
2023/03/07 06:53:42;;;;;;;3.03;2.00;;;10.80;52.80;;;;;;5039153;28;20049;-75
2023/03/07 06:56:08;;;;;;;2.83;2.10;;;10.90;53.00;;;;;;5038963;28;20051;-75
2023/03/07 06:58:35;;;;;;;2.92;1.95;;;10.80;53.00;;;;;;5042007;28;20527;-75
2023/03/07 07:01:01;;;;;;;3.28;2.25;;;10.80;52.80;;;;;;5037189;28;20052;-75
2023/03/07 07:03:29;;;;;;;3.03;2.30;;;10.70;52.90;;;;;;5040696;28;20033;-75
2023/03/07 07:05:56;;;;;;;2.10;1.70;;;10.70;52.80;;;;;;5021052;28;20037;-75
2023/03/07 07:08:21;;;;;;;3.20;1.95;;;10.60;52.80;;;;;;5027679;28;20035;-74
2023/03/07 07:10:47;;;;;;;3.35;2.28;;;10.70;52.90;;;;;;5040584;28;20036;-74
2023/03/07 07:13:14;;;;;;;2.28;2.00;;;10.60;52.90;;;;;;5027328;28;20026;-74
2023/03/07 07:15:40;;;;;;;4.00;2.22;;;10.60;53.00;;;;;;5036673;28;20040;-74
2023/03/07 07:18:06;;;;;;;3.30;1.67;;;10.60;53.00;;;;;;5039750;28;20514;-74
2023/03/07 07:20:33;;;;;;;3.78;2.25;;;10.60;53.00;;;;;;5040697;28;20049;-74
2023/03/07 07:23:00;;;;;;;3.20;2.13;;;10.60;52.80;;;;;;5043763;28;20046;-75
2023/03/07 07:25:26;;;;;;;2.85;2.20;;;10.60;52.80;;;;;;5010756;28;20512;-76
2023/03/07 07:27:52;;;;;;;3.45;2.17;;;10.60;57.10;;;;;;5023577;28;20037;-77
2023/03/07 07:30:18;;;;;;;2.58;2.03;;;10.60;55.40;;;;;;5037260;28;20036;-77
2023/03/07 07:32:44;;;;;;;2.75;1.92;;;10.60;54.40;;;;;;5042815;28;20030;-76
2023/03/07 07:35:11;;;;;;;3.50;2.00;;;10.60;53.60;;;;;;5043802;28;20033;-76
2023/03/07 07:37:39;;;;;;;4.55;2.47;;;10.60;53.20;;;;;;5044493;28;20036;-77
2023/03/07 07:40:07;;;;;;;3.28;2.33;;;10.60;52.80;;;;;;5039726;28;20045;-77
2023/03/07 07:42:34;;;;;;;4.60;2.63;;;10.60;52.60;;;;;;5026734;28;20136;-78
2023/03/07 07:45:20;;;;;;;4.47;2.90;;;10.60;52.60;;;;;;5040851;28;20037;-77
2023/03/07 07:47:50;;;;;;;4.45;2.40;;;10.50;52.60;;;;;;5040057;28;20416;-78
2023/03/07 07:50:17;;;;;;;4.70;2.53;;;10.50;52.50;;;;;;5044929;28;20087;-78
2023/03/07 07:52:43;;;;;;;4.22;2.30;;;10.50;52.40;;;;;;5038697;28;20029;-78
2023/03/07 07:55:13;;;;;;;3.03;2.28;;;10.50;52.40;;;;;;5041760;28;20033;-78
2023/03/07 07:57:40;;;;;;;4.72;2.50;;;10.50;52.20;;;;;;5022861;28;20082;-78
2023/03/07 08:00:09;;;;;;;4.05;2.88;;;10.50;52.30;;;;;;5043139;28;20500;-76
2023/03/07 08:02:38;;;;;;;3.63;2.90;;;10.40;51.90;;;;;;5036886;28;20476;-76
2023/03/07 08:05:09;;;;;;;4.22;2.55;;;10.40;52.80;;;;;;5043446;28;20033;-79
2023/03/07 08:07:35;;;;;;;5.88;2.35;;;10.40;52.40;;;;;;5036487;28;20036;-76
2023/03/07 08:10:01;;;;;;;3.90;2.72;;;10.40;52.80;;;;;;5039883;28;20663;-76
2023/03/07 08:12:27;;;;;;;4.28;2.70;;;10.40;53.20;;;;;;5041075;28;20029;-75
2023/03/07 08:14:53;;;;;;;5.30;2.50;;;10.40;53.40;;;;;;5039870;28;20033;-76
2023/03/07 08:17:19;;;;;;;4.68;2.63;;;10.40;53.70;;;;;;5035934;28;21868;-75
2023/03/07 08:19:45;;;;;;;3.85;2.95;;;10.40;53.80;;;;;;5036703;28;20152;-78
2023/03/07 08:22:10;;;;;;;3.35;2.78;;;10.40;53.90;;;;;;5038998;28;20116;-77
2023/03/07 08:24:37;;;;;;;4.85;2.58;;;10.40;54.00;;;;;;5024903;28;20081;-75
2023/03/07 08:27:03;;;;;;;4.95;2.75;;;10.40;54.10;;;;;;5035621;28;20768;-76
2023/03/07 08:29:29;;;;;;;4.07;2.58;;;10.40;54.20;;;;;;5037032;28;20132;-76
2023/03/07 08:31:55;;;;;;;3.22;2.58;;;10.40;54.40;;;;;;5042780;28;20167;-76
2023/03/07 08:34:21;;;;;;;4.93;2.83;;;10.40;54.30;;;;;;5040874;28;20033;-75
2023/03/07 08:36:47;;;;;;;5.13;2.40;;;10.40;54.40;;;;;;5009547;28;20032;-76
2023/03/07 08:39:13;;;;;;;2.92;2.38;;;10.40;54.20;;;;;;5035689;28;20044;-76
2023/03/07 08:41:39;;;;;;;4.50;2.58;;;10.40;54.10;;;;;;5035652;28;20044;-77
2023/03/07 08:44:05;;;;;;;4.55;2.40;;;10.40;53.90;;;;;;5039463;28;20033;-76
2023/03/07 08:46:31;;;;;;;4.47;2.70;;;10.50;53.90;;;;;;5040645;28;20415;-76
2023/03/07 08:48:57;;;;;;;4.05;2.22;;;10.50;54.00;;;;;;5044752;28;20041;-76
2023/03/07 08:51:23;;;;;;;4.35;2.50;;;10.50;53.70;;;;;;5039466;28;20037;-78
2023/03/07 08:53:49;;;;;;;3.78;2.65;;;10.50;53.70;;;;;;5039774;28;20043;-76
2023/03/07 08:56:17;;;;;;;3.80;2.58;;;10.50;53.60;;;;;;5043783;28;20036;-76
2023/03/07 08:58:44;;;;;;;4.43;2.67;;;10.50;53.40;;;;;;5040256;28;20067;-76
2023/03/07 09:01:11;;;;;;;6.13;2.70;;;10.50;53.40;;;;;;5029351;28;20471;-76
2023/03/07 09:03:38;;;;;;;3.85;2.70;;;10.50;53.60;;;;;;5041890;28;20036;-77
2023/03/07 09:06:05;;;;;;;3.53;2.42;;;10.50;53.40;;;;;;5028420;28;20075;-76
2023/03/07 09:08:31;;;;;;;2.92;2.35;;;10.50;53.20;;;;;;5045585;28;20072;-76
2023/03/07 09:11:02;;;;;;;3.75;2.55;;;10.60;53.40;;;;;;5043924;28;20033;-76
2023/03/07 09:13:28;;;;;;;4.15;3.10;;;10.60;53.10;;;;;;5011966;28;20545;-76
2023/03/07 09:15:54;;;;;;;3.28;2.50;;;10.60;53.00;;;;;;5040893;28;20033;-77
2023/03/07 09:18:21;;;;;;;3.97;2.40;;;10.60;52.80;;;;;;5039338;28;20640;-77
2023/03/07 09:20:47;;;;;;;4.07;2.85;;;10.60;52.80;;;;;;5046233;28;20032;-77
2023/03/07 09:23:13;;;;;;;3.72;2.80;;;10.60;52.90;;;;;;5040308;28;20025;-77
2023/03/07 09:25:39;;;;;;;4.82;3.10;;;10.60;52.60;;;;;;5028358;28;20857;-77
2023/03/07 09:28:05;;;;;;;3.60;2.65;;;10.60;52.70;;;;;;5039781;28;20033;-77
2023/03/07 09:30:31;;;;;;;4.75;2.65;;;10.60;52.60;;;;;;5042108;28;20040;-77
2023/03/07 09:32:57;;;;;;;4.65;3.17;;;10.60;52.30;;;;;;5042784;28;20384;-77
2023/03/07 09:35:24;;;;;;;4.18;2.88;;;10.60;52.40;;;;;;5039844;28;20025;-77
2023/03/07 09:37:50;;;;;;;4.38;3.10;;;10.60;52.30;;;;;;5043866;28;20507;-77
2023/03/07 09:40:24;;;;;;;3.92;3.10;;;10.60;52.20;;;;;;5041194;28;20048;-77
2023/03/07 09:43:21;;;;;;;5.32;2.70;;;10.60;52.20;;;;;;5008448;28;20033;-77
2023/03/07 09:46:31;;;;;;;4.63;2.92;;;10.60;52.20;;;;;;5022741;28;20496;-77
2023/03/07 09:49:11;;;;;;;4.00;3.10;;;10.60;51.80;;;;;;5039682;28;20649;-77
2023/03/07 09:51:39;;;;;;;4.28;2.80;;;10.60;51.90;;;;;;5039586;28;20029;-77
2023/03/07 09:54:05;;;;;;;5.38;3.40;;;10.60;51.80;;;;;;5025878;28;20049;-77
2023/03/07 09:56:37;;;;;;;4.05;3.28;;;10.60;51.90;;;;;;5028001;28;20036;-77
2023/03/07 09:59:39;;;;;;;4.70;3.25;;;10.60;51.80;;;;;;5041285;28;20046;-77
2023/03/07 10:02:24;;;;;;;4.18;3.03;;;10.60;52.30;;;;;;5030956;28;20451;-77
2023/03/07 10:05:22;;;;;;;4.10;3.03;;;10.60;51.70;;;;;;5045526;28;20048;-76
2023/03/07 10:07:48;;;;;;;3.92;3.10;;;10.60;51.50;;;;;;5009288;28;20033;-77
2023/03/07 10:10:30;;;;;;;4.53;3.05;;;10.60;51.30;;;;;;5049439;28;20123;-76
2023/03/07 10:13:09;;;;;;;4.28;3.20;;;10.70;51.50;;;;;;5038503;28;20029;-76
2023/03/07 10:15:41;;;;;;;5.43;3.20;;;10.70;51.40;;;;;;5038755;28;20079;-76
2023/03/07 10:18:31;;;;;;;4.30;2.97;;;10.60;51.10;;;;;;5039357;28;20037;-76
2023/03/07 10:21:26;;;;;;;4.15;2.90;;;10.60;51.30;;;;;;5039418;28;20041;-76
2023/03/07 10:24:04;;;;;;;4.03;3.00;;;10.60;51.40;;;;;;5028210;28;20037;-76
2023/03/07 10:26:40;;;;;;;4.68;3.20;;;10.70;50.90;;;;;;5038493;28;20029;-76
2023/03/07 10:29:14;;;;;;;4.03;2.63;;;10.70;50.80;;;;;;5053813;28;20037;-76
2023/03/07 10:31:45;;;;;;;3.97;2.92;;;10.70;50.90;;;;;;5043293;28;20642;-76
2023/03/07 10:34:23;;;;;;;4.18;3.00;;;10.70;51.40;;;;;;5043521;28;20033;-76
2023/03/07 10:36:52;;;;;;;5.30;3.55;;;10.70;51.00;;;;;;5038995;28;20043;-76
2023/03/07 10:39:42;;;;;;;5.63;3.28;;;10.70;50.70;;;;;;5047393;28;20362;-76
2023/03/07 10:42:13;;;;;;;3.85;2.85;;;10.70;51.00;;;;;;5057851;28;20029;-75
2023/03/07 10:44:40;;;;;;;3.50;2.55;;;10.70;51.00;;;;;;5025887;28;20029;-76
2023/03/07 10:47:21;;;;;;;3.42;2.92;;;10.70;50.70;;;;;;5058802;28;20021;-76
2023/03/07 10:49:52;;;;;;;3.75;2.92;;;10.70;50.80;;;;;;5057361;28;20121;-76
2023/03/07 10:52:30;;;;;;;4.63;2.60;;;10.70;50.70;;;;;;5057792;28;20040;-76
2023/03/07 10:55:31;;;;;;;4.60;3.63;;;10.70;50.80;;;;;;5041185;28;20497;-76
2023/03/07 10:58:24;;;;;;;4.72;3.05;;;10.70;51.20;;;;;;5058365;28;20551;-76
2023/03/07 11:01:07;;;;;;;4.13;3.08;;;10.70;51.10;;;;;;5057764;28;20040;-76
2023/03/07 11:04:00;;;;;;;3.65;3.00;;;10.70;51.10;;;;;;5056870;28;20039;-76
2023/03/07 11:06:35;;;;;;;5.53;3.20;;;10.70;51.10;;;;;;5057816;28;20079;-73
2023/03/07 11:09:13;;;;;;;5.60;3.00;;;10.70;51.10;;;;;;5055845;28;20056;-73
2023/03/07 11:11:39;;;;;;;4.90;2.90;;;10.70;51.30;;;;;;5057110;28;20468;-73
2023/03/07 11:14:09;;;;;;;4.65;2.80;;;10.70;51.10;;;;;;5056689;28;20115;-73
2023/03/07 11:16:47;;;;;;;6.88;3.00;;;10.70;50.90;;;;;;5042428;28;20040;-73
2023/03/07 11:19:33;;;;;;;6.35;2.97;;;10.70;51.00;;;;;;5057078;28;20045;-73
2023/03/07 11:22:02;;;;;;;3.22;2.63;;;10.70;51.10;;;;;;5057580;28;20045;-73
2023/03/07 11:24:30;;;;;;;4.40;2.53;;;10.70;50.90;;;;;;5056944;28;20029;-73
2023/03/07 11:26:58;;;;;;;5.88;2.85;;;10.70;50.80;;;;;;5057552;28;20466;-73
2023/03/07 11:29:27;;;;;;;4.05;2.85;;;10.70;50.90;;;;;;5058268;28;20071;-73
2023/03/07 11:32:15;;;;;;;5.20;3.15;;;10.70;50.90;;;;;;5056806;28;20214;-73
2023/03/07 11:34:58;;;;;;;4.10;2.83;;;10.70;50.70;;;;;;5055991;28;20083;-74
2023/03/07 11:37:38;;;;;;;5.20;2.70;;;10.70;50.60;;;;;;5041228;28;20574;-74
2023/03/07 11:40:40;;;;;;;4.80;2.97;;;10.80;50.30;;;;;;5043926;28;20045;-73
2023/03/07 11:43:17;;;;;;;4.65;2.97;;;10.80;50.60;;;;;;5047963;28;20784;-74
2023/03/07 11:45:58;;;;;;;3.47;2.40;;;10.70;50.40;;;;;;5056330;28;20032;-74
2023/03/07 11:49:06;;;;;;;3.85;2.50;;;10.80;50.60;;;;;;5046570;28;20416;-74
2023/03/07 11:51:40;;;;;;;4.25;2.40;;;10.80;50.50;;;;;;5053587;28;20052;-74
2023/03/07 11:54:24;;;;;;;3.45;2.60;;;10.80;50.10;;;;;;5045841;28;20032;-74
2023/03/07 11:56:54;;;;;;;4.28;2.97;;;10.80;50.20;;;;;;5046921;28;20028;-73
2023/03/07 12:00:09;;;;;;;3.83;2.60;;;10.80;50.00;;;;;;5056940;28;20089;-74
2023/03/07 12:03:02;;;;;;;4.68;2.67;;;10.80;50.20;;;;;;4983004;28;20088;-74
2023/03/07 12:05:45;;;;;;;3.50;2.47;;;10.80;50.10;;;;;;4984419;28;20038;-75
2023/03/07 12:08:36;;;;;;;4.97;2.90;;;10.80;50.00;;;;;;4982475;28;20501;-74
2023/03/07 12:11:25;;;;;;;5.25;2.65;;;10.80;50.00;;;;;;4982238;28;20044;-74
2023/03/07 12:14:05;;;;;;;4.13;2.80;;;10.80;49.90;;;;;;4980953;28;20034;-75
2023/03/07 12:17:12;;;;;;;3.25;2.40;;;10.80;49.70;;;;;;4967432;28;20759;-75
2023/03/07 12:20:17;;;;;;;3.88;2.80;;;10.80;50.10;;;;;;4929442;29;20046;-75
2023/03/07 12:23:03;;;;;;;3.97;2.63;;;10.80;50.00;;;;;;4945068;28;20040;-73
2023/03/07 12:25:38;;;;;;;4.15;2.95;;;10.80;49.90;;;;;;4927777;29;20043;-73
2023/03/07 12:28:42;;;;;;;3.88;2.65;;;10.80;49.60;;;;;;4944811;28;20725;-74
2023/03/07 12:31:25;;;;;;;4.47;2.63;;;10.80;49.50;;;;;;4927465;29;20085;-74
2023/03/07 12:34:02;;;;;;;4.38;2.47;;;10.80;49.40;;;;;;4946225;28;20085;-74
2023/03/07 12:36:52;;;;;;;3.67;2.67;;;10.80;49.20;;;;;;4945422;28;20830;-74
2023/03/07 12:39:39;;;;;;;4.32;2.75;;;10.90;49.30;;;;;;4968518;28;20518;-74
2023/03/07 12:42:34;;;;;;;4.13;2.60;;;10.80;49.00;;;;;;4972191;28;20050;-74
2023/03/07 12:45:08;;;;;;;4.57;3.00;;;10.80;49.30;;;;;;4962007;28;20092;-73
2023/03/07 12:47:56;;;;;;;5.22;2.60;;;10.80;49.00;;;;;;4939947;28;20517;-74
2023/03/07 12:50:40;;;;;;;3.60;2.70;;;10.80;49.00;;;;;;4986184;28;20066;-75
2023/03/07 12:53:11;;;;;;;3.38;2.95;;;10.80;48.30;;;;;;5010886;28;20065;-73
2023/03/07 12:56:02;;;;;;;5.32;2.97;;;10.80;48.20;;;;;;5052320;28;20041;-73
2023/03/07 12:58:45;;;;;;;4.63;2.85;;;10.80;48.10;;;;;;5059802;28;20041;-76
2023/03/07 13:01:20;;;;;;;6.13;3.25;;;10.70;48.30;;;;;;5056583;28;20503;-76
2023/03/07 13:04:05;;;;;;;5.50;3.30;;;10.70;48.00;;;;;;5055336;28;20043;-79
2023/03/07 13:06:33;;;;;;;4.95;3.72;;;10.70;48.50;;;;;;5056015;28;20032;-76
2023/03/07 13:09:02;;;;;;;5.93;3.88;;;10.70;48.60;;;;;;5055358;28;20094;-74
2023/03/07 13:11:32;;;;;;;6.05;4.32;;;10.70;48.80;;;;;;5039016;28;20028;-78